Emily Golding — WDI9033 — position and weather

sailwx.info

Track history (hours):
 
Tides and Currents Weather Stations Pressure Air Temp Water Temp Dewpoint Dewpoint Depression Visibility Wind Speed Wind Dir Waves Ship Positions

Emily Golding

Owner: GOLDING BARGE LINE, VICKSBURG, MS. More information available from US FCC via Universal Licensing System and Coast Guard Vessel Documentation Center.

Last reported at 2017-Sep-25 13:12 UTC. Time now 2017-Sep-25 13:39 UTC.
Position N 29°51' W 092°21'.

Length 31 m; draft 3 m.

Type: Towing. MMSI: 367744620.

Date/timePositionNaut miles runAvg speedWind from/ knotsBaromVisibWave heightAir tempDewpointWater temp
2017-Sep-25 13:12N 29°51' W 092°21'1 4.2
2017-Sep-25 13:00N 29°51' W 092°20'2 4.7
2017-Sep-25 12:30N 29°50' W 092°18'2 3.1
2017-Sep-25 11:58N 29°49' W 092°16'1 3.0
2017-Sep-25 11:30N 29°48' W 092°15'2 4.5
2017-Sep-25 11:00N 29°47' W 092°13'0 0.6
2017-Sep-25 10:29N 29°47' W 092°12'0 0.5
2017-Sep-25 10:00N 29°47' W 092°12'1 1.3
2017-Sep-25 09:28N 29°47' W 092°11'0 0.0
2017-Sep-25 08:58N 29°47' W 092°11'0 0.0
2017-Sep-25 08:28N 29°47' W 092°11'0 0.0
2017-Sep-25 07:58N 29°47' W 092°11'1 1.9
2017-Sep-25 07:30N 29°47' W 092°10'2 4.5
2017-Sep-25 07:00N 29°47' W 092°08'3 5.3
2017-Sep-25 06:30N 29°48' W 092°05'3 5.2
2017-Sep-25 05:55N 29°49' W 092°02'59 3.9
2017-Sep-24 14:40N 29°34' W 090°56'1 4.8
2017-Sep-24 14:30N 29°33' W 090°55'3 5.3
2017-Sep-24 13:57N 29°32' W 090°52'2 5.1
2017-Sep-24 13:30N 29°32' W 090°50'3 5.6
2017-Sep-24 13:00N 29°32' W 090°46'2 4.4
2017-Sep-24 12:30N 29°34' W 090°45'2 3.5
2017-Sep-24 12:00N 29°35' W 090°43'2 4.0
2017-Sep-24 11:30N 29°37' W 090°42'2 4.0
2017-Sep-24 11:00N 29°36' W 090°40'2 4.8
2017-Sep-24 10:30N 29°35' W 090°38'2 4.6
2017-Sep-24 10:00N 29°35' W 090°35'2 4.9
2017-Sep-24 09:30N 29°34' W 090°33'3 5.1
2017-Sep-24 09:00N 29°34' W 090°30'3 5.2
2017-Sep-24 08:22N 29°33' W 090°26'  
2017-Sep-20 16:35N 29°33' W 090°28'1 6.1
2017-Sep-20 16:29N 29°34' W 090°29'3 6.0
2017-Sep-20 16:00N 29°34' W 090°32'3 5.5
2017-Sep-20 15:30N 29°34' W 090°35'2 4.2
2017-Sep-20 15:00N 29°35' W 090°37'4 4.4
2017-Sep-20 14:00N 29°37' W 090°42'1 2.9
2017-Sep-20 13:30N 29°36' W 090°43'2 3.2
2017-Sep-20 13:00N 29°34' W 090°43'2 3.9
2017-Sep-20 12:30N 29°33' W 090°45'2 4.8
2017-Sep-20 12:00N 29°32' W 090°48'6 5.9
2017-Sep-20 11:02N 29°33' W 090°54'0 5.9
2017-Sep-20 10:59N 29°33' W 090°55'59 3.8
2017-Sep-19 19:27N 29°50' W 091°60'2 5.3
2017-Sep-19 19:01N 29°49' W 092°02'2 4.9
2017-Sep-19 18:30N 29°48' W 092°05'2 5.0
2017-Sep-19 18:00N 29°47' W 092°07'2 4.8
2017-Sep-19 17:31N 29°47' W 092°10'2 3.9
2017-Sep-19 17:01N 29°47' W 092°12'2 3.6
2017-Sep-19 16:30N 29°48' W 092°14'2 5.0
2017-Sep-19 16:00N 29°49' W 092°17'2 3.9
2017-Sep-19 15:30N 29°50' W 092°18'2 3.3
2017-Sep-19 15:00N 29°51' W 092°20'37 4.5
2017-Sep-19 06:46N 29°56' W 093°03'1 4.7
2017-Sep-19 06:29N 29°56' W 093°04'2 4.4
2017-Sep-19 06:00N 29°56' W 093°07'2 4.5
2017-Sep-19 05:30N 29°56' W 093°09'2 4.5
2017-Sep-19 05:00N 29°58' W 093°11'2 4.7
2017-Sep-19 04:30N 29°59' W 093°13'2 4.0
2017-Sep-19 04:00N 30°01' W 093°14'2 4.3
2017-Sep-19 03:30N 30°03' W 093°16'1 1.8
2017-Sep-19 03:00N 30°04' W 093°16'1 2.1
2017-Sep-19 02:30N 30°04' W 093°16'2 3.2
2017-Sep-19 02:00N 30°05' W 093°18'1 1.9
2017-Sep-19 01:30N 30°06' W 093°19'2 4.3
2017-Sep-19 01:00N 30°04' W 093°20'2 3.1
2017-Sep-19 00:29N 30°04' W 093°22'1 3.0
2017-Sep-19 00:00N 30°04' W 093°24'3 5.3
2017-Sep-18 23:30N 30°04' W 093°27'3 5.8
2017-Sep-18 23:00N 30°04' W 093°30'3 5.4
2017-Sep-18 22:30N 30°04' W 093°33'4 5.4
2017-Sep-18 21:50N 30°04' W 093°37'73 4.0
2017-Sep-18 03:37N 29°30' W 094°53'1 6.7
2017-Sep-18 03:28N 29°31' W 094°53'3 6.2
2017-Sep-18 03:00N 29°34' W 094°55'3 6.0
2017-Sep-18 02:30N 29°36' W 094°57'3 6.3
2017-Sep-18 02:00N 29°39' W 094°58'3 6.2
2017-Sep-18 01:28N 29°42' W 095°00'3 5.1
2017-Sep-18 00:47N 29°44' W 095°03'6 0.1
2017-Sep-16 09:26N 29°45' W 095°10'1 0.2
2017-Sep-16 04:53N 29°44' W 095°09'1 0.0
2017-Sep-15 14:09N 29°45' W 095°10'  
Track history (hours):
 
Tides and Currents Weather Stations Pressure Air Temp Water Temp Dewpoint Dewpoint Depression Visibility Wind Speed Wind Dir Waves Ship Positions

Emily Golding

Owner: GOLDING BARGE LINE, VICKSBURG, MS. More information available from US FCC via Universal Licensing System and Coast Guard Vessel Documentation Center.

Last reported at 2017-Sep-25 13:12 UTC. Time now 2017-Sep-25 13:39 UTC.
Position N 29°51' W 092°21'.

Length 31 m; draft 3 m.

Type: Towing. MMSI: 367744620.

Date/timePositionNaut miles runAvg speedWind from/ knotsBaromVisibWave heightAir tempDewpointWater temp
2017-Sep-25 13:12N 29°51' W 092°21'1 4.2
2017-Sep-25 13:00N 29°51' W 092°20'2 4.7
2017-Sep-25 12:30N 29°50' W 092°18'2 3.1
2017-Sep-25 11:58N 29°49' W 092°16'1 3.0
2017-Sep-25 11:30N 29°48' W 092°15'2 4.5
2017-Sep-25 11:00N 29°47' W 092°13'0 0.6
2017-Sep-25 10:29N 29°47' W 092°12'0 0.5
2017-Sep-25 10:00N 29°47' W 092°12'1 1.3
2017-Sep-25 09:28N 29°47' W 092°11'0 0.0
2017-Sep-25 08:58N 29°47' W 092°11'0 0.0
2017-Sep-25 08:28N 29°47' W 092°11'0 0.0
2017-Sep-25 07:58N 29°47' W 092°11'1 1.9
2017-Sep-25 07:30N 29°47' W 092°10'2 4.5
2017-Sep-25 07:00N 29°47' W 092°08'3 5.3
2017-Sep-25 06:30N 29°48' W 092°05'3 5.2
2017-Sep-25 05:55N 29°49' W 092°02'59 3.9
2017-Sep-24 14:40N 29°34' W 090°56'1 4.8
2017-Sep-24 14:30N 29°33' W 090°55'3 5.3
2017-Sep-24 13:57N 29°32' W 090°52'2 5.1
2017-Sep-24 13:30N 29°32' W 090°50'3 5.6
2017-Sep-24 13:00N 29°32' W 090°46'2 4.4
2017-Sep-24 12:30N 29°34' W 090°45'2 3.5
2017-Sep-24 12:00N 29°35' W 090°43'2 4.0
2017-Sep-24 11:30N 29°37' W 090°42'2 4.0
2017-Sep-24 11:00N 29°36' W 090°40'2 4.8
2017-Sep-24 10:30N 29°35' W 090°38'2 4.6
2017-Sep-24 10:00N 29°35' W 090°35'2 4.9
2017-Sep-24 09:30N 29°34' W 090°33'3 5.1
2017-Sep-24 09:00N 29°34' W 090°30'3 5.2
2017-Sep-24 08:22N 29°33' W 090°26'  
2017-Sep-20 16:35N 29°33' W 090°28'1 6.1
2017-Sep-20 16:29N 29°34' W 090°29'3 6.0
2017-Sep-20 16:00N 29°34' W 090°32'3 5.5
2017-Sep-20 15:30N 29°34' W 090°35'2 4.2
2017-Sep-20 15:00N 29°35' W 090°37'4 4.4
2017-Sep-20 14:00N 29°37' W 090°42'1 2.9
2017-Sep-20 13:30N 29°36' W 090°43'2 3.2
2017-Sep-20 13:00N 29°34' W 090°43'2 3.9
2017-Sep-20 12:30N 29°33' W 090°45'2 4.8
2017-Sep-20 12:00N 29°32' W 090°48'6 5.9
2017-Sep-20 11:02N 29°33' W 090°54'0 5.9
2017-Sep-20 10:59N 29°33' W 090°55'59 3.8
2017-Sep-19 19:27N 29°50' W 091°60'2 5.3
2017-Sep-19 19:01N 29°49' W 092°02'2 4.9
2017-Sep-19 18:30N 29°48' W 092°05'2 5.0
2017-Sep-19 18:00N 29°47' W 092°07'2 4.8
2017-Sep-19 17:31N 29°47' W 092°10'2 3.9
2017-Sep-19 17:01N 29°47' W 092°12'2 3.6
2017-Sep-19 16:30N 29°48' W 092°14'2 5.0
2017-Sep-19 16:00N 29°49' W 092°17'2 3.9
2017-Sep-19 15:30N 29°50' W 092°18'2 3.3
2017-Sep-19 15:00N 29°51' W 092°20'37 4.5
2017-Sep-19 06:46N 29°56' W 093°03'1 4.7
2017-Sep-19 06:29N 29°56' W 093°04'2 4.4
2017-Sep-19 06:00N 29°56' W 093°07'2 4.5
2017-Sep-19 05:30N 29°56' W 093°09'2 4.5
2017-Sep-19 05:00N 29°58' W 093°11'2 4.7
2017-Sep-19 04:30N 29°59' W 093°13'2 4.0
2017-Sep-19 04:00N 30°01' W 093°14'2 4.3
2017-Sep-19 03:30N 30°03' W 093°16'1 1.8
2017-Sep-19 03:00N 30°04' W 093°16'1 2.1
2017-Sep-19 02:30N 30°04' W 093°16'2 3.2
2017-Sep-19 02:00N 30°05' W 093°18'1 1.9
2017-Sep-19 01:30N 30°06' W 093°19'2 4.3
2017-Sep-19 01:00N 30°04' W 093°20'2 3.1
2017-Sep-19 00:29N 30°04' W 093°22'1 3.0
2017-Sep-19 00:00N 30°04' W 093°24'3 5.3
2017-Sep-18 23:30N 30°04' W 093°27'3 5.8
2017-Sep-18 23:00N 30°04' W 093°30'3 5.4
2017-Sep-18 22:30N 30°04' W 093°33'4 5.4
2017-Sep-18 21:50N 30°04' W 093°37'73 4.0
2017-Sep-18 03:37N 29°30' W 094°53'1 6.7
2017-Sep-18 03:28N 29°31' W 094°53'3 6.2
2017-Sep-18 03:00N 29°34' W 094°55'3 6.0
2017-Sep-18 02:30N 29°36' W 094°57'3 6.3
2017-Sep-18 02:00N 29°39' W 094°58'3 6.2
2017-Sep-18 01:28N 29°42' W 095°00'3 5.1
2017-Sep-18 00:47N 29°44' W 095°03'6 0.1
2017-Sep-16 09:26N 29°45' W 095°10'1 0.2
2017-Sep-16 04:53N 29°44' W 095°09'1 0.0
2017-Sep-15 14:09N 29°45' W 095°10'  

Dump ship's entire track history